Time;durP1;ratioP1;P1;durP2;ratioP2;P2;SDS_P1;SDS_P2;PMS_P1;PMS_P2;Temp;Humidity;BMP_temperature;BMP_pressure;BME280_temperature;BME280_humidity;BME280_pressure;Samples;Min_cycle;Max_cycle;Signal;HPM_P1;HPM_P2
2022/01/23 00:01:50;;;;;;;5.50;3.30;;;;;;;-4.76;82.89;98725.03;104953;1271;74038;-23
2022/01/23 00:04:18;;;;;;;5.50;3.60;;;;;;;-4.58;81.44;98725.94;105237;1271;75995;-24
2022/01/23 00:06:48;;;;;;;5.60;3.40;;;;;;;-4.69;81.84;98721.82;105043;1271;74511;-24
2022/01/23 00:09:18;;;;;;;5.60;3.40;;;;;;;-4.79;82.21;98721.21;105092;1271;61160;-24
2022/01/23 00:11:51;;;;;;;6.10;3.10;;;;;;;-4.88;82.52;98730.56;105338;1271;61783;-24
2022/01/23 00:19:49;;;;;;;4.90;3.10;;;;;;;-4.71;82.56;98732.38;105268;1271;74437;-24
2022/01/23 00:22:20;;;;;;;5.60;3.30;;;;;;;-4.78;81.90;98729.32;105150;1268;61131;-24
2022/01/23 00:30:30;;;;;;;5.00;2.70;;;;;;;-5.26;83.38;98732.78;105293;1270;75946;-23
2022/01/23 00:33:04;;;;;;;3.90;2.40;;;;;;;-4.96;82.35;98728.39;105115;1271;74864;-22
2022/01/23 00:35:33;;;;;;;11.60;4.30;;;;;;;-4.64;81.45;98726.11;105322;1271;61173;-22
2022/01/23 00:38:03;;;;;;;5.70;3.60;;;;;;;-4.81;81.59;98720.41;105041;1271;62083;-24
2022/01/23 00:40:32;;;;;;;6.90;3.10;;;;;;;-5.04;82.43;98714.02;105024;1271;74979;-26
2022/01/23 00:43:01;;;;;;;6.20;3.50;;;;;;;-5.03;82.44;98720.60;104998;1271;75909;-23
2022/01/23 00:45:34;;;;;;;6.50;4.10;;;;;;;-5.21;82.67;98715.08;105249;1271;73489;-24
2022/01/23 00:48:09;;;;;;;6.90;3.90;;;;;;;-5.13;83.11;98720.15;104986;1271;61087;-24
2022/01/23 00:50:40;;;;;;;7.80;3.80;;;;;;;-4.82;81.65;98724.34;104966;1271;62122;-24
2022/01/23 00:53:10;;;;;;;6.10;3.30;;;;;;;-4.73;81.03;98724.12;104771;1272;74865;-24
2022/01/23 00:55:43;;;;;;;4.50;3.20;;;;;;;-5.10;82.16;98728.20;104854;1271;74582;-24
2022/01/23 00:58:12;;;;;;;;;;;;;;;-5.29;83.41;98729.13;104861;1270;74506;-24
2022/01/23 01:00:41;;;;;;;5.40;2.90;;;;;;;-5.25;83.57;98726.48;105002;1270;61138;-24
2022/01/23 01:03:10;;;;;;;5.20;3.70;;;;;;;-4.98;82.79;98719.63;104993;1271;61032;-24
2022/01/23 01:05:39;;;;;;;6.30;3.70;;;;;;;-4.92;82.65;98725.41;104885;1271;74693;-24
2022/01/23 01:08:08;;;;;;;5.30;3.00;;;;;;;-4.92;82.14;98723.05;104941;1271;75178;-24
2022/01/23 01:11:01;;;;;;;4.50;3.10;;;;;;;-5.04;82.87;98720.44;105005;1270;74567;-22
2022/01/23 01:13:51;;;;;;;7.40;3.00;;;;;;;-5.28;83.69;98714.55;105160;1271;61322;-23
2022/01/23 01:36:05;;;;;;;4.90;3.10;;;;;;;-4.92;82.77;98719.33;105158;1271;75960;-24
2022/01/23 01:38:33;;;;;;;4.20;2.90;;;;;;;-5.15;83.43;98714.08;105176;1271;72898;-24
2022/01/23 01:41:02;;;;;;;5.10;3.00;;;;;;;-5.28;84.03;98717.09;105349;1271;61160;-25
2022/01/23 01:43:35;;;;;;;5.10;2.80;;;;;;;-5.24;84.30;98712.95;105192;1271;61137;-25
2022/01/23 01:46:04;;;;;;;7.20;3.30;;;;;;;-4.86;82.87;98712.39;105240;1270;73847;-23
2022/01/23 01:48:45;;;;;;;5.10;3.20;;;;;;;-4.79;82.67;98719.36;104899;1270;75028;-23
2022/01/23 01:51:16;;;;;;;8.00;3.70;;;;;;;-4.86;82.65;98718.16;104979;1271;73486;-24
2022/01/23 01:53:57;;;;;;;6.40;2.90;;;;;;;-5.11;83.99;98720.95;104922;1271;61027;-24
2022/01/23 01:56:26;;;;;;;;;;;;;;;-5.30;84.59;98719.33;104970;1271;61028;-22
2022/01/23 02:10:15;;;;;;;7.90;3.00;;;;;;;-5.20;84.30;98735.36;104966;1271;61032;-24
2022/01/23 02:13:04;;;;;;;3.20;2.20;;;;;;;-5.08;84.06;98740.84;105023;1271;75301;-23
2022/01/23 02:22:32;;;;;;;5.90;2.60;;;;;;;-4.87;82.90;98746.13;104435;1277;61323;-23
2022/01/23 02:52:46;;;;;;;5.50;2.70;;;;;;;-4.98;82.63;98789.89;104315;1274;62524;-25
2022/01/23 02:55:21;;;;;;;7.40;3.70;;;;;;;-5.04;83.35;98796.63;104938;1271;75413;-24
2022/01/23 02:57:57;;;;;;;4.30;2.60;;;;;;;-4.92;82.76;98793.67;104820;1271;75958;-23
2022/01/23 03:00:35;;;;;;;4.60;2.00;;;;;;;-4.60;81.19;98793.77;104911;1270;74267;-23
2022/01/23 03:03:10;;;;;;;5.20;2.70;;;;;;;-4.52;80.39;98796.30;104949;1270;61029;-23
2022/01/23 03:06:18;;;;;;;6.80;2.80;;;;;;;-4.70;80.94;98800.27;105185;1271;61077;-23
2022/01/23 03:25:09;;;;;;;4.00;2.40;;;;;;;-4.88;81.63;98821.52;105132;1271;75233;-22
2022/01/23 03:30:28;;;;;;;6.80;2.90;;;;;;;-4.55;80.57;98824.52;105240;1271;61303;-24
2022/01/23 03:32:56;;;;;;;3.30;1.70;;;;;;;-4.49;80.08;98825.41;104996;1271;61061;-24
2022/01/23 03:35:25;;;;;;;4.20;2.50;;;;;;;-4.47;80.00;98830.23;105023;1271;75555;-23
2022/01/23 03:37:53;;;;;;;4.60;3.30;;;;;;;-4.78;80.82;98831.46;105027;1271;74200;-22
2022/01/23 03:40:22;;;;;;;4.00;2.80;;;;;;;-4.92;82.06;98837.20;104959;1271;73359;-24
2022/01/23 03:42:56;;;;;;;2.90;2.00;;;;;;;-4.96;82.57;98841.67;104976;1269;62607;-25
2022/01/23 03:50:54;;;;;;;5.60;3.50;;;;;;;-4.88;80.32;98849.12;105303;1271;74539;-25
2022/01/23 03:53:43;;;;;;;5.70;3.60;;;;;;;-4.94;80.53;98849.77;105222;1271;71783;-26
2022/01/23 03:56:12;;;;;;;6.50;4.20;;;;;;;-5.29;81.09;98852.50;105150;1271;61208;-29
2022/01/23 03:58:41;;;;;;;6.40;3.70;;;;;;;-5.38;80.21;98846.42;105011;1271;61065;-26
2022/01/23 04:01:16;;;;;;;7.20;4.30;;;;;;;-5.18;80.25;98858.02;105251;1271;74804;-25
2022/01/23 04:03:45;;;;;;;10.40;4.60;;;;;;;-5.19;80.14;98857.88;105147;1271;75857;-24
2022/01/23 04:06:13;;;;;;;6.80;3.80;;;;;;;-5.19;79.86;98858.56;105310;1270;74759;-22
2022/01/23 04:08:44;;;;;;;9.90;5.30;;;;;;;-5.33;80.07;98863.60;105156;1271;61289;-23
2022/01/23 04:11:13;;;;;;;8.80;4.80;;;;;;;-5.53;80.15;98861.41;105376;1270;61005;-24
2022/01/23 04:14:02;;;;;;;9.80;4.80;;;;;;;-5.54;80.41;98873.61;105305;1271;75227;-22
2022/01/23 04:45:11;;;;;;;42.40;15.30;;;;;;;-6.12;78.20;98903.72;105074;1270;61051;-24
2022/01/23 05:00:49;;;;;;;19.20;11.40;;;;;;;-6.78;72.90;98935.57;105109;1271;72831;-23
2022/01/23 05:06:23;;;;;;;17.20;10.60;;;;;;;-7.10;74.03;98937.30;105247;1270;61762;-22
2022/01/23 05:09:10;;;;;;;15.90;8.90;;;;;;;-7.26;75.48;98947.77;105195;1271;74118;-23
2022/01/23 05:12:07;;;;;;;11.20;8.10;;;;;;;-7.16;75.33;98945.64;105156;1271;74378;-23
2022/01/23 05:14:41;;;;;;;12.90;8.40;;;;;;;-7.13;74.80;98964.51;105128;1271;74623;-24
2022/01/23 05:17:11;;;;;;;13.10;7.80;;;;;;;-7.33;74.11;98958.13;105143;1271;61099;-23
2022/01/23 05:19:41;;;;;;;15.00;9.30;;;;;;;-7.65;73.38;98971.09;105150;1271;61953;-25
2022/01/23 05:25:09;;;;;;;34.50;21.60;;;;;;;-8.11;73.52;98970.59;105266;1270;73166;-24
2022/01/23 05:27:38;;;;;;;215.30;95.60;;;;;;;-8.32;74.61;98982.84;105174;1271;71599;-22
2022/01/23 05:30:09;;;;;;;236.10;98.70;;;;;;;-8.31;75.23;98992.62;105045;1271;61298;-24
2022/01/23 05:32:42;;;;;;;118.30;59.70;;;;;;;-8.10;74.43;99002.09;105190;1271;62040;-24
2022/01/23 05:35:13;;;;;;;46.40;28.80;;;;;;;-8.03;72.83;99006.09;105131;1271;75679;-24
2022/01/23 05:37:42;;;;;;;26.30;16.00;;;;;;;-7.96;71.98;99010.77;104940;1271;74975;-24
2022/01/23 05:40:17;;;;;;;26.80;15.00;;;;;;;-8.19;70.81;99019.33;105318;1271;73478;-23
2022/01/23 05:42:48;;;;;;;17.50;9.10;;;;;;;-8.31;70.66;99037.92;105182;1271;61038;-24
2022/01/23 05:45:16;;;;;;;15.00;8.70;;;;;;;-8.36;69.86;99036.93;105279;1270;61032;-24
2022/01/23 05:48:05;;;;;;;81.40;39.40;;;;;;;-8.45;69.80;99058.21;104906;1271;74577;-24
2022/01/23 05:50:53;;;;;;;72.50;35.70;;;;;;;-8.45;69.91;99069.98;105183;1271;76059;-24
2022/01/23 05:53:41;;;;;;;313.50;154.30;;;;;;;-8.16;68.43;99070.02;104928;1269;73415;-24
2022/01/23 05:56:19;;;;;;;442.40;182.10;;;;;;;-7.79;66.31;99071.66;105244;1271;61285;-24
2022/01/23 05:58:56;;;;;;;187.70;99.20;;;;;;;-7.77;66.00;99084.30;105255;1271;61026;-24
2022/01/23 06:01:29;;;;;;;118.50;58.30;;;;;;;-7.73;66.23;99087.30;105333;1270;74020;-24
2022/01/23 06:04:05;;;;;;;46.20;27.50;;;;;;;-7.92;66.10;99089.95;105328;1269;74823;-24
2022/01/23 06:06:46;;;;;;;23.40;13.50;;;;;;;-8.23;65.62;99091.79;105186;1271;73390;-24
2022/01/23 06:09:15;;;;;;;15.80;7.70;;;;;;;-8.23;65.81;99094.30;104871;1271;61370;-24
2022/01/23 06:11:45;;;;;;;12.70;6.80;;;;;;;-8.31;66.36;99099.91;105070;1271;62051;-24
2022/01/23 06:14:14;;;;;;;16.90;8.40;;;;;;;-8.39;66.35;99104.31;105003;1270;75253;-24
2022/01/23 06:16:43;;;;;;;11.10;6.40;;;;;;;-8.44;66.46;99106.20;105313;1271;75930;-24
2022/01/23 06:19:33;;;;;;;15.70;9.00;;;;;;;-7.92;65.15;99105.10;105275;1271;73237;-24
2022/01/23 06:22:21;;;;;;;190.90;102.30;;;;;;;-7.63;64.14;99113.37;105202;1271;61134;-24
2022/01/23 06:24:50;;;;;;;44.10;24.40;;;;;;;-7.79;64.63;99111.44;105274;1271;61925;-24
2022/01/23 06:27:37;;;;;;;141.20;84.00;;;;;;;-7.90;64.84;99112.52;105275;1271;74754;-23
2022/01/23 06:30:07;;;;;;;64.00;36.10;;;;;;;-8.05;65.79;99113.77;105320;1271;76028;-22
2022/01/23 06:32:35;;;;;;;58.10;33.80;;;;;;;-8.17;66.41;99126.30;105120;1271;73688;-22
2022/01/23 06:35:04;;;;;;;49.10;28.90;;;;;;;-8.25;67.09;99130.88;105136;1271;61104;-24
2022/01/23 06:37:33;;;;;;;61.00;32.70;;;;;;;-8.42;67.70;99133.14;105173;1271;61297;-22
2022/01/23 06:40:02;;;;;;;46.80;26.50;;;;;;;-8.41;68.60;99142.22;105192;1271;74280;-22
2022/01/23 06:42:54;;;;;;;19.10;11.60;;;;;;;-8.27;69.28;99145.88;105079;1271;75092;-23
2022/01/23 06:45:27;;;;;;;13.90;8.70;;;;;;;-7.78;67.92;99146.17;105284;1271;74375;-22
2022/01/23 06:48:01;;;;;;;12.80;7.60;;;;;;;-7.53;67.74;99155.13;105244;1270;61089;-22
2022/01/23 06:50:30;;;;;;;139.20;64.10;;;;;;;-7.69;68.62;99153.04;104942;1271;60997;-24
2022/01/23 06:52:58;;;;;;;38.30;21.60;;;;;;;-7.59;68.93;99163.10;104885;1271;74551;-22
2022/01/23 06:55:27;;;;;;;39.40;24.00;;;;;;;-7.76;69.45;99167.05;105001;1271;75944;-22
2022/01/23 06:57:58;;;;;;;13.30;8.80;;;;;;;-7.89;69.88;99174.53;104984;1271;73263;-23
2022/01/23 07:00:26;;;;;;;16.70;9.50;;;;;;;-8.00;70.67;99177.62;104230;1270;1003819;-22
2022/01/23 07:03:34;;;;;;;20.90;10.30;;;;;;;-8.08;71.49;99171.75;104278;1277;62532;-23
2022/01/23 07:06:32;;;;;;;22.50;10.90;;;;;;;-8.25;72.47;99176.17;103737;1283;73641;-23
2022/01/23 07:09:17;;;;;;;17.60;8.60;;;;;;;-8.28;73.59;99188.31;104806;1271;76245;-23
2022/01/23 07:12:09;;;;;;;18.20;9.70;;;;;;;-7.96;73.09;99194.98;104823;1271;73133;-23
2022/01/23 07:15:07;;;;;;;28.70;8.70;;;;;;;-7.35;71.22;99201.08;105150;1271;61562;-23
2022/01/23 07:17:55;;;;;;;17.80;9.30;;;;;;;-7.41;71.37;99200.93;105168;1271;61236;-23
2022/01/23 07:20:32;;;;;;;10.60;5.90;;;;;;;-7.46;71.98;99207.04;105002;1271;75518;-24
2022/01/23 07:23:07;;;;;;;42.30;21.00;;;;;;;-7.64;73.02;99213.55;104984;1271;75015;-24
2022/01/23 07:25:36;;;;;;;39.70;16.20;;;;;;;-7.98;73.65;99208.29;104877;1271;74510;-23
2022/01/23 07:28:07;;;;;;;51.20;21.90;;;;;;;-8.04;74.31;99215.89;104903;1271;61516;-24
2022/01/23 07:30:40;;;;;;;22.40;12.00;;;;;;;-8.09;74.71;99215.91;104839;1271;62192;-24
2022/01/23 07:33:09;;;;;;;18.70;9.40;;;;;;;-8.24;75.52;99216.27;104830;1271;75564;-24
2022/01/23 07:35:37;;;;;;;22.10;10.10;;;;;;;-8.19;76.09;99226.23;104943;1271;75193;-25
2022/01/23 07:38:06;;;;;;;18.30;9.30;;;;;;;-8.18;76.25;99229.06;104870;1271;73588;-24
2022/01/23 07:40:58;;;;;;;18.90;9.20;;;;;;;-7.75;74.59;99239.05;104857;1271;61077;-24
2022/01/23 07:43:43;;;;;;;18.40;9.90;;;;;;;-7.59;74.10;99249.11;105195;1271;61114;-22
2022/01/23 07:46:36;;;;;;;18.80;9.60;;;;;;;-7.74;74.54;99252.70;105054;1271;75531;-24
2022/01/23 07:49:15;;;;;;;12.00;6.80;;;;;;;-7.89;74.75;99252.92;104968;1271;74556;-24
2022/01/23 07:52:19;;;;;;;;;;;;;;;-7.80;75.30;99262.33;104524;1277;72256;-23
2022/01/23 07:54:58;;;;;;;17.70;9.10;;;;;;;-7.89;75.47;99264.54;104717;1274;61375;-24
2022/01/23 07:57:35;;;;;;;19.30;9.40;;;;;;;-7.95;75.91;99269.62;104893;1271;61154;-23
2022/01/23 08:00:24;;;;;;;13.80;6.90;;;;;;;-8.16;76.20;99269.84;104897;1269;75651;-23
2022/01/23 08:02:52;;;;;;;12.40;7.10;;;;;;;-8.12;76.58;99271.52;104924;1271;74975;-22
2022/01/23 08:05:23;;;;;;;15.00;7.20;;;;;;;-7.64;75.22;99283.85;104963;1271;73394;-23
2022/01/23 08:08:10;;;;;;;14.10;7.30;;;;;;;-7.53;74.02;99288.20;104909;1271;61099;-23
2022/01/23 08:10:48;;;;;;;13.90;6.40;;;;;;;-7.45;73.95;99291.54;104987;1271;61157;-24
2022/01/23 08:13:32;;;;;;;12.50;7.10;;;;;;;-7.60;73.85;99296.33;104945;1271;74437;-24
2022/01/23 08:16:00;;;;;;;20.60;9.00;;;;;;;-7.54;74.17;99300.17;105150;1271;75036;-23
2022/01/23 08:18:29;;;;;;;11.00;6.30;;;;;;;-7.68;74.64;99300.06;105257;1271;74427;-23
2022/01/23 08:20:58;;;;;;;17.50;9.50;;;;;;;-7.70;75.14;99307.30;105229;1271;61137;-23
2022/01/23 08:23:27;;;;;;;22.10;12.90;;;;;;;-7.77;75.36;99306.83;105059;1270;61029;-23
2022/01/23 08:25:55;;;;;;;84.60;28.40;;;;;;;-7.73;75.91;99315.08;105174;1270;75315;-23
2022/01/23 08:28:24;;;;;;;22.20;11.40;;;;;;;-7.71;75.72;99320.13;105240;1271;75987;-23
2022/01/23 08:30:52;;;;;;;10.00;5.70;;;;;;;-7.19;74.45;99331.57;105265;1271;74431;-23
2022/01/23 08:33:21;;;;;;;15.90;8.00;;;;;;;-7.02;73.47;99341.63;105263;1271;61086;-23
2022/01/23 08:35:50;;;;;;;21.20;10.60;;;;;;;-7.15;73.80;99344.05;105261;1271;61493;-23
2022/01/23 08:38:18;;;;;;;17.80;10.30;;;;;;;-7.20;74.22;99349.80;105270;1271;74943;-23
2022/01/23 08:40:58;;;;;;;59.10;25.30;;;;;;;-7.36;74.91;99354.59;105105;1271;75772;-23
2022/01/23 08:43:27;;;;;;;26.70;14.30;;;;;;;-7.49;75.43;99357.00;105085;1271;74272;-23
2022/01/23 08:45:56;;;;;;;28.40;12.90;;;;;;;-7.54;75.52;99369.49;105116;1271;61112;-23
2022/01/23 08:48:25;;;;;;;54.00;21.90;;;;;;;-7.48;75.54;99376.39;105018;1271;61696;-23
2022/01/23 08:50:53;;;;;;;31.30;13.90;;;;;;;-7.57;75.89;99377.09;104956;1271;74587;-24
2022/01/23 08:53:21;;;;;;;43.40;21.50;;;;;;;-7.00;74.04;99384.32;104938;1271;75998;-23
2022/01/23 08:55:50;;;;;;;25.80;12.10;;;;;;;-7.29;74.24;99374.64;104944;1271;73114;-23
2022/01/23 08:58:18;;;;;;;26.10;13.60;;;;;;;-7.15;74.16;99376.95;104982;1271;61049;-25
2022/01/23 09:00:47;;;;;;;18.80;8.50;;;;;;;-7.32;74.44;99368.24;105002;1271;61029;-24
2022/01/23 09:03:15;;;;;;;16.70;8.20;;;;;;;-7.52;75.25;99378.42;105077;1271;74669;-24
2022/01/23 09:05:44;;;;;;;23.50;11.70;;;;;;;-7.40;75.55;99385.80;105092;1271;74820;-23
2022/01/23 09:08:12;;;;;;;29.80;15.20;;;;;;;-7.40;75.38;99386.82;105202;1271;74607;-25
2022/01/23 09:10:51;;;;;;;21.30;12.10;;;;;;;-7.54;75.50;99382.99;105048;1271;61125;-24
2022/01/23 09:13:33;;;;;;;14.80;8.20;;;;;;;-7.33;75.03;99389.48;104934;1271;61006;-24
2022/01/23 09:16:01;;;;;;;34.40;19.90;;;;;;;-6.82;73.55;99392.17;105079;1271;74690;-24
2022/01/23 09:18:35;;;;;;;55.50;34.50;;;;;;;-6.61;72.41;99402.69;105228;1270;76144;-24
2022/01/23 09:21:03;;;;;;;27.10;14.40;;;;;;;-6.78;72.99;99405.65;105291;1271;74334;-24
2022/01/23 09:23:32;;;;;;;29.30;13.60;;;;;;;-6.75;73.05;99409.02;105239;1271;62075;-24
2022/01/23 09:26:07;;;;;;;23.30;15.60;;;;;;;-7.21;74.14;99400.77;105306;1271;61745;-24
2022/01/23 09:28:36;;;;;;;23.80;12.50;;;;;;;-7.32;74.97;99408.39;105026;1274;75715;-24
2022/01/23 09:31:04;;;;;;;14.40;8.20;;;;;;;-7.30;74.94;99412.27;105113;1271;75719;-24
2022/01/23 09:33:39;;;;;;;17.00;8.80;;;;;;;-7.32;74.87;99420.89;104937;1271;74357;-24
2022/01/23 09:36:08;;;;;;;13.40;7.10;;;;;;;-6.99;74.44;99425.67;104926;1271;61040;-23
2022/01/23 09:38:37;;;;;;;42.20;23.80;;;;;;;-6.89;73.79;99431.03;105175;1271;61150;-24
2022/01/23 09:41:05;;;;;;;40.30;23.60;;;;;;;-6.74;73.59;99441.77;105284;1271;74579;-24
2022/01/23 09:43:34;;;;;;;17.00;9.60;;;;;;;-6.50;72.90;99445.03;105292;1271;75971;-24
2022/01/23 09:46:05;;;;;;;50.40;37.40;;;;;;;-6.75;73.34;99446.48;105131;1271;73078;-24
2022/01/23 09:48:34;;;;;;;22.80;12.60;;;;;;;-7.01;74.79;99453.20;105166;1271;62160;-24
2022/01/23 09:51:04;;;;;;;23.50;16.40;;;;;;;-6.92;74.73;99455.54;105171;1271;61754;-23
2022/01/23 09:53:32;;;;;;;20.10;9.30;;;;;;;-7.10;75.31;99456.94;105156;1271;74490;-23
2022/01/23 09:56:05;;;;;;;13.20;8.00;;;;;;;-7.12;75.54;99456.94;104946;1271;75797;-23
2022/01/23 09:58:34;;;;;;;16.10;10.20;;;;;;;-6.96;74.84;99458.75;104748;1271;260789;-23
2022/01/23 10:01:02;;;;;;;16.30;8.20;;;;;;;-6.74;73.79;99461.52;104874;1271;61143;-23
2022/01/23 10:03:31;;;;;;;13.20;7.30;;;;;;;-6.92;74.00;99463.45;104951;1271;61919;-23
2022/01/23 10:06:00;;;;;;;12.00;7.00;;;;;;;-6.90;74.81;99462.61;105025;1271;74356;-23
2022/01/23 10:08:36;;;;;;;31.40;21.50;;;;;;;-6.95;74.60;99459.25;105024;1271;75781;-24
2022/01/23 10:11:09;;;;;;;13.70;7.40;;;;;;;-7.08;75.26;99467.73;105191;1271;74670;-23
2022/01/23 10:13:39;;;;;;;22.00;10.20;;;;;;;-7.16;75.91;99471.30;105247;1271;62151;-23
2022/01/23 10:16:07;;;;;;;20.00;11.80;;;;;;;-7.08;75.95;99474.98;104804;1271;61140;-23
2022/01/23 10:18:36;;;;;;;22.80;10.50;;;;;;;-6.86;75.13;99472.39;104941;1271;75825;-23
2022/01/23 10:21:05;;;;;;;19.00;10.60;;;;;;;-6.43;73.94;99480.64;105039;1271;74283;-23
2022/01/23 10:23:34;;;;;;;15.20;8.30;;;;;;;-6.66;74.50;99485.14;105281;1271;74292;-23
2022/01/23 10:26:04;;;;;;;14.80;7.50;;;;;;;-6.75;75.13;99484.84;105279;1271;61035;-23
2022/01/23 10:28:35;;;;;;;18.70;9.90;;;;;;;-6.76;75.59;99490.08;105150;1271;61063;-23
2022/01/23 10:31:05;;;;;;;19.30;9.90;;;;;;;-6.78;75.81;99492.11;105212;1271;75401;-23
2022/01/23 10:33:37;;;;;;;16.40;8.70;;;;;;;-6.88;76.34;99494.17;105074;1271;75851;-23
2022/01/23 10:36:09;;;;;;;13.50;7.30;;;;;;;-6.97;76.47;99496.73;104929;1271;74258;-23
2022/01/23 10:38:46;;;;;;;17.70;10.70;;;;;;;-6.91;76.48;99497.05;104845;1271;61098;-23
2022/01/23 10:49:55;;;;;;;14.00;8.40;;;;;;;-6.79;76.65;99505.11;104891;1271;74647;-23
2022/01/23 10:52:28;;;;;;;17.40;7.90;;;;;;;-6.95;77.56;99509.90;104903;1271;62005;-23
2022/01/23 10:54:57;;;;;;;24.90;11.20;;;;;;;-6.92;77.50;99516.98;104928;1271;61019;-23
2022/01/23 10:57:39;;;;;;;18.80;11.90;;;;;;;-6.87;77.11;99518.83;104908;1271;75317;-23
2022/01/23 11:00:09;;;;;;;39.70;16.30;;;;;;;-6.49;75.51;99520.55;104919;1270;74232;-23
2022/01/23 11:02:41;;;;;;;34.40;14.30;;;;;;;-6.41;75.26;99514.26;104809;1271;73203;-23
2022/01/23 11:05:12;;;;;;;67.80;23.90;;;;;;;-6.47;75.69;99511.75;104720;1271;61129;-23
2022/01/23 11:07:43;;;;;;;28.80;16.30;;;;;;;-6.70;76.19;99509.98;104708;1271;61028;-24
2022/01/23 11:10:21;;;;;;;42.80;15.10;;;;;;;-6.65;76.56;99521.45;104716;1272;75689;-23
2022/01/23 11:18:11;;;;;;;44.10;17.10;;;;;;;-6.58;76.04;99536.80;104886;1271;62048;-23
2022/01/23 11:20:41;;;;;;;32.70;13.40;;;;;;;-6.29;75.29;99541.58;104817;1274;61046;-23
2022/01/23 11:23:12;;;;;;;63.80;21.60;;;;;;;-6.02;74.33;99553.27;105016;1271;75909;-23
2022/01/23 11:25:42;;;;;;;26.50;12.40;;;;;;;-6.34;75.43;99560.02;104939;1271;75148;-23
2022/01/23 11:28:10;;;;;;;28.70;13.50;;;;;;;-6.36;75.91;99572.54;104754;1270;74374;-23
2022/01/23 11:30:42;;;;;;;32.50;14.30;;;;;;;-6.51;76.20;99571.73;104875;1271;61093;-23
2022/01/23 11:33:13;;;;;;;55.80;23.40;;;;;;;-6.66;76.45;99575.34;104764;1271;61234;-22
2022/01/23 11:35:41;;;;;;;48.10;19.40;;;;;;;-6.80;77.29;99572.16;104913;1271;74496;-23
2022/01/23 11:38:13;;;;;;;317.90;145.40;;;;;;;-6.41;75.95;99574.58;105241;1271;76035;-23
2022/01/23 11:50:42;;;;;;;20.80;11.10;;;;;;;-6.26;75.31;99575.20;105118;1271;73572;-23
2022/01/23 11:54:52;;;;;;;37.10;17.10;;;;;;;-6.51;77.56;99600.98;105138;1271;73141;-23
2022/01/23 11:57:41;;;;;;;35.30;15.70;;;;;;;-6.35;76.04;99609.70;105265;1271;61710;-23
2022/01/23 12:00:17;;;;;;;15.60;7.50;;;;;;;-5.86;75.20;99611.48;105151;1271;61182;-23
2022/01/23 12:03:10;;;;;;;29.80;17.50;;;;;;;-5.99;74.87;99619.00;104883;1271;74533;-23
2022/01/23 12:05:44;;;;;;;28.30;17.10;;;;;;;-6.32;75.92;99618.65;105293;1271;74492;-25
2022/01/23 12:08:35;;;;;;;25.70;13.80;;;;;;;-6.47;76.33;99622.41;105151;1271;74477;-24
2022/01/23 12:11:34;;;;;;;17.70;9.30;;;;;;;-6.55;76.83;99630.22;104878;1271;61134;-23
2022/01/23 12:16:25;;;;;;;20.30;12.20;;;;;;;-6.68;76.97;99637.66;104955;1271;61146;-23
2022/01/23 12:17:06;;;;;;;18.80;11.50;;;;;;;-6.59;77.30;99644.75;105273;1271;75511;-23
2022/01/23 12:19:50;;;;;;;27.70;14.00;;;;;;;-6.07;75.55;99656.08;105171;1271;74454;-23
2022/01/23 12:22:40;;;;;;;17.10;8.30;;;;;;;-5.89;74.46;99657.86;105273;1271;74782;-23
2022/01/23 12:25:16;;;;;;;16.20;8.80;;;;;;;-6.42;75.13;99646.91;105174;1271;61230;-24
2022/01/23 12:27:44;;;;;;;23.20;14.40;;;;;;;-6.33;75.30;99663.27;105052;1272;61093;-23
2022/01/23 12:30:15;;;;;;;17.80;10.10;;;;;;;-6.56;75.66;99659.77;105305;1271;75750;-23
2022/01/23 12:33:13;;;;;;;19.80;10.40;;;;;;;-6.63;75.84;99659.77;105166;1271;76071;-24
2022/01/23 12:35:42;;;;;;;;;;;;;;;-6.59;75.97;99668.73;105144;1271;73351;-23
2022/01/23 12:38:12;;;;;;;12.10;7.60;;;;;;;-6.36;75.59;99671.05;104958;1271;62710;-23
2022/01/23 12:40:45;;;;;;;14.30;9.00;;;;;;;-6.19;74.27;99671.17;104902;1271;61266;-23
2022/01/23 12:43:18;;;;;;;18.30;10.20;;;;;;;-5.91;73.76;99685.60;104991;1271;74177;-24
2022/01/23 12:46:04;;;;;;;19.50;10.80;;;;;;;-5.89;74.12;99692.85;104964;1271;75892;-23
2022/01/23 12:48:40;;;;;;;71.60;34.90;;;;;;;-6.02;73.93;99696.80;105073;1272;74686;-24
2022/01/23 12:51:12;;;;;;;49.50;26.80;;;;;;;-6.39;74.94;99696.74;105007;1271;62017;-25
2022/01/23 12:53:51;;;;;;;45.80;23.30;;;;;;;-6.31;75.22;99703.15;105185;1271;62080;-23
2022/01/23 12:56:30;;;;;;;31.60;16.20;;;;;;;-6.31;75.10;99702.98;104773;1274;75427;-23
2022/01/23 12:59:06;;;;;;;49.70;29.30;;;;;;;-6.46;75.23;99701.66;104776;1274;76158;-23
2022/01/23 13:01:36;;;;;;;32.50;18.20;;;;;;;-6.24;74.77;99704.66;104793;1271;74200;-23
2022/01/23 13:04:06;;;;;;;16.20;8.80;;;;;;;-5.98;74.12;99712.52;104970;1271;61073;-22
2022/01/23 13:06:41;;;;;;;25.70;14.60;;;;;;;-6.01;73.77;99722.67;104880;1271;61119;-23
2022/01/23 13:12:17;;;;;;;16.80;10.20;;;;;;;-6.18;74.46;99725.60;104899;1271;76143;-23
2022/01/23 13:26:48;;;;;;;203.60;52.80;;;;;;;-6.01;73.53;99746.00;104828;1274;74792;-23
2022/01/23 13:34:30;;;;;;;70.20;20.90;;;;;;;-6.05;74.26;99767.82;104964;1271;61044;-23
2022/01/23 13:37:14;;;;;;;67.70;19.70;;;;;;;-6.17;74.52;99770.41;105030;1274;75547;-23
2022/01/23 13:39:51;;;;;;;;;;;;;;;-6.33;75.15;99779.20;104865;1274;75039;-23
2022/01/23 13:54:03;;;;;;;142.10;45.60;;;;;;;-6.16;74.33;99797.77;104960;1271;74906;-24
2022/01/23 13:59:43;;;;;;;71.30;20.60;;;;;;;-6.40;74.92;99804.22;105047;1271;61058;-24
2022/01/23 14:02:27;;;;;;;29.80;12.80;;;;;;;-6.60;74.73;99796.10;104911;1271;61087;-24
2022/01/23 14:05:13;;;;;;;20.10;9.40;;;;;;;-6.55;74.98;99812.32;104906;1271;75760;-23
2022/01/23 14:07:50;;;;;;;44.90;18.80;;;;;;;-6.07;73.54;99814.67;105124;1271;73953;-21
2022/01/23 14:10:27;;;;;;;39.50;20.30;;;;;;;-5.90;72.45;99823.09;105053;1271;71608;-21
2022/01/23 14:13:15;;;;;;;36.20;14.30;;;;;;;-5.94;72.62;99833.08;105006;1271;61236;-24
2022/01/23 14:15:45;;;;;;;102.70;32.20;;;;;;;-6.27;73.47;99836.83;105054;1271;61196;-25
2022/01/23 14:18:22;;;;;;;111.60;30.40;;;;;;;-6.20;73.99;99848.34;104791;1272;74133;-25
2022/01/23 14:20:58;;;;;;;56.20;20.00;;;;;;;-6.51;74.68;99844.42;104813;1271;75432;-23
2022/01/23 14:23:26;;;;;;;123.50;26.30;;;;;;;-6.49;75.07;99853.55;104799;1271;74611;-26
2022/01/23 14:25:59;;;;;;;150.90;32.40;;;;;;;-6.57;75.11;99858.45;105012;1270;61416;-26
2022/01/23 14:28:36;;;;;;;56.90;17.20;;;;;;;-6.06;74.06;99861.84;105062;1272;61128;-25
2022/01/23 14:31:14;;;;;;;95.60;29.60;;;;;;;-5.89;73.07;99864.34;104795;1272;75719;-25
2022/01/23 14:33:44;;;;;;;41.50;15.10;;;;;;;-6.10;73.53;99869.95;104787;1274;76399;-24
2022/01/23 14:36:32;;;;;;;55.70;17.40;;;;;;;-6.27;74.08;99875.54;104852;1271;74580;-23
2022/01/23 14:39:11;;;;;;;33.90;14.10;;;;;;;-6.34;74.10;99872.66;104666;1271;61188;-24
2022/01/23 14:41:41;;;;;;;39.10;14.40;;;;;;;-6.53;74.51;99880.92;104840;1271;62755;-22
2022/01/23 14:44:21;;;;;;;55.60;22.40;;;;;;;-6.63;74.65;99888.34;104736;1272;75956;-22
2022/01/23 14:46:52;;;;;;;31.70;15.00;;;;;;;-6.72;75.40;99893.55;104810;1272;74591;-22
2022/01/23 14:49:23;;;;;;;23.70;11.40;;;;;;;-6.37;74.19;99899.87;104869;1274;74408;-23
2022/01/23 14:51:52;;;;;;;29.20;14.20;;;;;;;-5.96;72.86;99908.83;104925;1271;61311;-24
2022/01/23 14:54:21;;;;;;;37.80;15.90;;;;;;;-5.99;72.57;99914.42;104945;1271;61137;-23
2022/01/23 14:56:51;;;;;;;19.80;9.90;;;;;;;-6.27;73.06;99917.98;104918;1271;74559;-24
2022/01/23 14:59:20;;;;;;;19.90;10.30;;;;;;;-6.32;73.77;99928.27;104941;1271;76019;-23
2022/01/23 15:01:48;;;;;;;18.40;8.60;;;;;;;-6.44;74.18;99937.20;105052;1271;74386;-23
2022/01/23 15:04:20;;;;;;;30.30;15.10;;;;;;;-6.56;74.04;99935.48;105285;1271;61092;-23
2022/01/23 15:06:50;;;;;;;23.00;10.40;;;;;;;-6.78;74.62;99940.98;105306;1271;62000;-23
2022/01/23 15:09:19;;;;;;;26.60;13.40;;;;;;;-6.72;75.05;99948.61;105152;1271;75517;-23
2022/01/23 15:11:48;;;;;;;11.30;6.90;;;;;;;-6.55;74.10;99951.19;105116;1271;75957;-23
2022/01/23 15:14:18;;;;;;;15.70;9.10;;;;;;;-6.26;72.89;99956.84;105331;1271;73017;-23
2022/01/23 15:16:48;;;;;;;18.90;8.80;;;;;;;-6.20;72.60;99961.26;105341;1271;61557;-23